Time;durP1;ratioP1;P1;durP2;ratioP2;P2;SDS_P1;SDS_P2;PMS_P1;PMS_P2;Temp;Humidity;BMP_temperature;BMP_pressure;BME280_temperature;BME280_humidity;BME280_pressure;Samples;Min_cycle;Max_cycle;Signal;HPM_P1;HPM_P2
2023/10/14 00:01:14;;;;;;;0.10;0.10;;;;;;;15.65;79.46;100293.53;5034265;28;20022;-79
2023/10/14 00:03:41;;;;;;;0.10;0.10;;;;;;;15.61;79.58;100299.97;5034573;28;20029;-79
2023/10/14 00:06:11;;;;;;;0.03;0.03;;;;;;;15.64;79.49;100310.50;5031594;28;20038;-78
2023/10/14 00:08:47;;;;;;;0.10;0.10;;;;;;;15.60;79.49;100317.81;5026261;28;20554;-78
2023/10/14 00:11:15;;;;;;;0.10;0.10;;;;;;;15.64;79.32;100307.84;5024746;28;20025;-78
2023/10/14 00:13:45;;;;;;;0.03;0.03;;;;;;;15.63;79.78;100308.78;5030605;28;20022;-79
2023/10/14 00:16:20;;;;;;;0.10;0.10;;;;;;;15.68;79.21;100315.59;5025042;28;20036;-79
2023/10/14 00:18:48;;;;;;;0.32;0.32;;;;;;;15.69;79.21;100328.03;5022019;28;20029;-78
2023/10/14 00:21:14;;;;;;;0.10;0.10;;;;;;;15.61;79.36;100340.03;5021641;28;20029;-79
2023/10/14 00:23:40;;;;;;;0.00;0.00;;;;;;;15.63;79.22;100360.38;5025145;28;20547;-79
2023/10/14 00:26:14;;;;;;;2.05;1.45;;;;;;;15.60;79.59;100375.69;5022942;28;20040;-78
2023/10/14 00:28:41;;;;;;;0.10;0.10;;;;;;;15.51;78.70;100374.31;5028822;28;20029;-78
2023/10/14 00:31:10;;;;;;;0.10;0.10;;;;;;;15.33;78.56;100373.41;5028105;28;20033;-79
2023/10/14 00:33:37;;;;;;;0.10;0.10;;;;;;;15.17;78.15;100374.09;5025089;28;20029;-78
2023/10/14 00:36:03;;;;;;;0.10;0.10;;;;;;;15.18;78.24;100377.66;5029459;28;20128;-79
2023/10/14 00:38:34;;;;;;;0.10;0.10;;;;;;;15.09;78.14;100386.97;5024937;28;20029;-80
2023/10/14 00:41:00;;;;;;;0.10;0.10;;;;;;;15.08;77.91;100400.34;5025819;28;20033;-78
2023/10/14 00:43:27;;;;;;;0.10;0.10;;;;;;;15.07;78.05;100406.66;5021050;28;20041;-79
2023/10/14 00:45:54;;;;;;;0.50;0.50;;;;;;;15.05;77.98;100406.69;5027242;28;20030;-80
2023/10/14 00:48:27;;;;;;;0.10;0.10;;;;;;;15.05;78.20;100414.69;5018889;28;20041;-79
2023/10/14 00:50:58;;;;;;;0.00;0.00;;;;;;;15.03;77.94;100424.59;5026539;28;20032;-79
2023/10/14 00:53:28;;;;;;;0.10;0.10;;;;;;;15.06;77.84;100429.78;5023045;28;20033;-79
2023/10/14 00:55:55;;;;;;;0.10;0.10;;;;;;;15.07;78.10;100428.00;5021262;28;20444;-80
2023/10/14 00:58:28;;;;;;;0.10;0.10;;;;;;;15.03;77.80;100432.59;5024775;28;20555;-79
2023/10/14 01:00:57;;;;;;;0.10;0.10;;;;;;;14.96;76.86;100445.31;5021315;28;20030;-81
2023/10/14 01:03:25;;;;;;;0.10;0.10;;;;;;;14.87;76.46;100443.94;5024140;28;20524;-79
2023/10/14 01:05:55;;;;;;;4.70;0.98;;;;;;;14.81;75.09;100449.53;5029077;28;20052;-80
2023/10/14 01:08:24;;;;;;;0.17;0.17;;;;;;;14.79;75.37;100448.75;5022409;28;20029;-80
2023/10/14 01:10:51;;;;;;;0.10;0.10;;;;;;;14.73;74.80;100454.38;5033255;28;20033;-79
2023/10/14 01:13:22;;;;;;;0.20;0.20;;;;;;;14.60;73.69;100463.78;5025973;28;20029;-81
2023/10/14 01:15:57;;;;;;;6.38;2.38;;;;;;;14.52;72.92;100470.31;5027710;28;20069;-81
2023/10/14 01:18:23;;;;;;;0.10;0.10;;;;;;;14.48;72.99;100468.72;5031431;28;20041;-80
2023/10/14 01:20:49;;;;;;;0.10;0.10;;;;;;;14.43;73.35;100484.03;5032730;28;20021;-81
2023/10/14 01:23:17;;;;;;;0.30;0.30;;;;;;;14.35;72.66;100494.13;5026504;28;20034;-81
2023/10/14 01:25:52;;;;;;;0.10;0.10;;;;;;;14.35;73.04;100489.66;5031940;28;20022;-80
2023/10/14 01:28:23;;;;;;;0.10;0.10;;;;;;;14.27;72.82;100498.91;5032515;28;20041;-80
2023/10/14 01:31:16;;;;;;;0.10;0.10;;;;;;;14.20;72.11;100491.16;5026785;28;20038;-80
2023/10/14 01:33:42;;;;;;;0.10;0.10;;;;;;;14.16;72.89;100504.69;5024331;28;20029;-80
2023/10/14 01:36:09;;;;;;;0.10;0.10;;;;;;;14.07;72.42;100520.09;5027044;28;20030;-79
2023/10/14 01:38:37;;;;;;;0.10;0.10;;;;;;;13.97;71.71;100513.41;5030043;28;20041;-80
2023/10/14 01:41:04;;;;;;;0.10;0.10;;;;;;;13.91;71.63;100530.50;5029330;28;20037;-81
2023/10/14 01:43:31;;;;;;;0.10;0.10;;;;;;;13.88;71.48;100530.63;5040268;28;20124;-80
2023/10/14 01:48:38;;;;;;;0.20;0.20;;;;;;;13.76;70.56;100539.09;5075920;28;20138;-81
2023/10/14 01:51:04;;;;;;;0.10;0.10;;;;;;;13.76;71.72;100544.41;5051815;28;20069;-81
2023/10/14 01:53:32;;;;;;;0.17;0.17;;;;;;;13.72;71.07;100550.75;5062814;28;20036;-80
2023/10/14 01:56:01;;;;;;;0.30;0.30;;;;;;;13.63;69.62;100549.31;5052045;28;20491;-81
2023/10/14 02:03:51;;;;;;;0.57;0.57;;;;;;;13.54;69.77;100566.50;5108161;27;20397;-80
2023/10/14 02:06:21;;;;;;;0.10;0.10;;;;;;;13.52;70.49;100581.66;5084903;28;20166;-81
2023/10/14 02:08:52;;;;;;;0.10;0.10;;;;;;;13.43;69.11;100588.19;5093839;28;20033;-79
2023/10/14 02:11:20;;;;;;;0.10;0.10;;;;;;;13.41;68.66;100589.19;5103113;28;20032;-78
2023/10/14 02:13:50;;;;;;;0.10;0.10;;;;;;;13.43;69.43;100592.63;5108422;28;20024;-79
2023/10/14 02:16:18;;;;;;;3.20;1.58;;;;;;;13.41;68.77;100599.81;5101245;28;20054;-79
2023/10/14 02:18:44;;;;;;;0.10;0.10;;;;;;;13.46;69.54;100608.50;5099860;28;20051;-79
2023/10/14 02:21:11;;;;;;;0.10;0.10;;;;;;;13.33;68.85;100612.50;5097395;28;20496;-80
2023/10/14 02:23:54;;;;;;;0.10;0.10;;;;;;;13.37;69.23;100614.09;5104224;28;20022;-79
2023/10/14 02:26:24;;;;;;;;;;;;;;;13.52;68.54;100631.34;5097359;28;20032;-78
2023/10/14 02:28:52;;;;;;;0.10;0.10;;;;;;;13.42;69.05;100638.78;5099262;28;19912;-80
2023/10/14 02:34:06;;;;;;;0.10;0.10;;;;;;;13.24;67.43;100649.13;5118742;27;20400;-81
2023/10/14 02:36:35;;;;;;;0.17;0.17;;;;;;;13.35;68.78;100654.09;5105705;28;20036;-80
2023/10/14 02:39:23;;;;;;;0.13;0.13;;;;;;;13.31;67.71;100656.91;5101538;28;20032;-81
2023/10/14 02:44:51;;;;;;;0.20;0.20;;;;;;;13.33;68.15;100669.22;5121937;27;1173766;-81
2023/10/14 02:47:19;;;;;;;0.10;0.10;;;;;;;13.34;69.07;100680.75;5135032;27;20020;-82
2023/10/14 02:49:57;;;;;;;0.10;0.10;;;;;;;13.32;67.50;100686.13;5131754;27;20611;-80
2023/10/14 02:52:30;;;;;;;4.28;3.10;;;;;;;13.29;66.78;100691.53;5131319;27;20035;-81
2023/10/14 02:55:50;;;;;;;0.10;0.10;;;;;;;13.39;67.39;100700.97;5127520;28;20027;-81
2023/10/14 02:57:45;;;;;;;0.35;0.35;;;;;;;13.39;66.81;100703.63;5131855;27;20039;-80
2023/10/14 03:00:13;;;;;;;0.10;0.10;;;;;;;13.39;66.55;100708.09;5127271;27;20039;-80
2023/10/14 03:03:12;;;;;;;0.15;0.15;;;;;;;13.37;66.47;100716.16;5124027;27;20423;-81
2023/10/14 03:05:33;;;;;;;0.10;0.10;;;;;;;13.46;66.89;100720.28;5122806;28;20490;-82
2023/10/14 03:08:16;;;;;;;0.10;0.10;;;;;;;13.49;67.62;100730.81;5131139;27;20031;-81
2023/10/14 03:10:45;;;;;;;0.20;0.20;;;;;;;13.40;66.39;100734.66;5132286;27;20038;-81
2023/10/14 03:13:12;;;;;;;0.13;0.13;;;;;;;13.35;65.94;100743.69;5131513;27;20034;-80
2023/10/14 03:15:39;;;;;;;0.22;0.22;;;;;;;13.38;66.07;100746.28;5131571;28;20031;-80
2023/10/14 03:18:06;;;;;;;0.10;0.10;;;;;;;13.37;66.09;100744.50;5130706;27;20534;-82
2023/10/14 03:20:36;;;;;;;0.10;0.10;;;;;;;13.40;66.83;100755.09;5130802;27;20491;-81
2023/10/14 03:25:39;;;;;;;0.10;0.10;;;;;;;13.20;68.08;100769.03;5088798;27;20763;-80
2023/10/14 03:28:14;;;;;;;0.32;0.32;;;;;;;13.34;67.11;100779.22;5092267;28;20063;-81
2023/10/14 03:30:45;;;;;;;0.10;0.10;;;;;;;13.27;66.24;100779.41;5077495;28;20032;-81
2023/10/14 03:33:14;;;;;;;0.10;0.10;;;;;;;13.37;65.97;100776.44;5083745;28;20043;-81
2023/10/14 03:35:42;;;;;;;0.10;0.10;;;;;;;13.36;66.90;100780.91;5084115;28;20032;-81
2023/10/14 03:38:15;;;;;;;0.25;0.25;;;;;;;13.40;67.17;100781.72;5084882;28;20068;-80
2023/10/14 03:43:28;;;;;;;0.10;0.10;;;;;;;13.35;65.88;100787.13;5120067;27;20385;-82
2023/10/14 03:46:03;;;;;;;0.55;0.55;;;;;;;13.32;64.87;100797.00;5107147;28;20036;-80
2023/10/14 03:48:36;;;;;;;0.10;0.10;;;;;;;13.34;65.58;100801.34;5099369;28;20045;-79
2023/10/14 03:51:03;;;;;;;0.38;0.38;;;;;;;13.27;63.82;100805.13;5100813;28;20508;-80
2023/10/14 03:53:31;;;;;;;0.65;0.65;;;;;;;13.28;64.28;100806.88;5100137;28;20040;-81
2023/10/14 03:55:59;;;;;;;0.10;0.10;;;;;;;13.31;65.24;100805.91;5098156;28;20032;-82
2023/10/14 03:58:25;;;;;;;0.20;0.20;;;;;;;13.24;63.90;100814.09;5098519;28;20028;-80
2023/10/14 04:00:52;;;;;;;0.20;0.20;;;;;;;13.19;64.40;100820.47;5097876;28;20152;-79
2023/10/14 04:03:39;;;;;;;0.10;0.10;;;;;;;13.13;64.39;100824.19;5098473;28;20028;-80
2023/10/14 04:06:07;;;;;;;0.10;0.10;;;;;;;13.10;63.35;100829.63;5094341;28;20036;-81
2023/10/14 04:08:39;;;;;;;0.10;0.10;;;;;;;13.15;63.97;100833.00;5086378;28;20032;-81
2023/10/14 04:11:13;;;;;;;67.20;1.85;;;;;;;13.15;63.69;100832.16;5089375;28;20032;-79
2023/10/14 04:13:51;;;;;;;0.10;0.10;;;;;;;13.11;63.42;100842.88;5083331;28;20032;-81
2023/10/14 04:16:27;;;;;;;0.10;0.10;;;;;;;13.08;63.63;100842.97;5088616;28;20099;-79
2023/10/14 04:18:59;;;;;;;0.10;0.10;;;;;;;13.16;63.14;100849.81;5088607;28;20055;-79
2023/10/14 04:21:35;;;;;;;0.20;0.20;;;;;;;13.12;62.49;100854.38;5089888;28;21799;-80
2023/10/14 04:26:49;;;;;;;4.82;2.60;;;;;;;13.10;62.23;100870.38;5085288;28;20508;-80
2023/10/14 04:29:34;;;;;;;0.10;0.10;;;;;;;13.19;63.67;100871.03;5089386;28;20455;-81
2023/10/14 04:32:13;;;;;;;1.35;1.25;;;;;;;13.05;61.90;100879.44;5088677;28;20032;-80
2023/10/14 04:34:41;;;;;;;0.10;0.10;;;;;;;13.01;61.61;100889.28;5090654;28;20036;-80
2023/10/14 04:37:08;;;;;;;0.20;0.20;;;;;;;13.09;61.75;100883.72;5089910;28;20033;-80
2023/10/14 04:39:42;;;;;;;2.17;2.00;;;;;;;13.14;61.71;100888.94;5089408;28;20477;-79
2023/10/14 04:44:55;;;;;;;0.20;0.20;;;;;;;12.98;61.68;100899.13;5112510;27;20403;-80
2023/10/14 04:47:35;;;;;;;0.10;0.10;;;;;;;13.14;62.55;100897.75;5088998;28;20412;-81
2023/10/14 04:50:10;;;;;;;0.10;0.10;;;;;;;13.16;62.80;100913.66;5090799;28;20039;-80
2023/10/14 04:52:37;;;;;;;0.10;0.10;;;;;;;13.13;62.96;100914.63;5096098;28;20032;-80
2023/10/14 04:55:25;;;;;;;1.33;1.25;;;;;;;13.05;62.31;100928.16;5104198;28;20012;-80
2023/10/14 04:58:11;;;;;;;0.30;0.30;;;;;;;13.08;62.92;100928.09;5101317;28;20389;-82
2023/10/14 05:00:45;;;;;;;0.10;0.10;;;;;;;13.10;62.68;100934.22;5099534;28;20040;-80
2023/10/14 05:03:13;;;;;;;0.10;0.10;;;;;;;13.05;61.90;100936.16;5098807;28;20051;-82
2023/10/14 05:05:43;;;;;;;0.20;0.20;;;;;;;13.05;62.23;100937.94;5098923;28;20055;-82
2023/10/14 05:08:15;;;;;;;0.10;0.10;;;;;;;13.03;61.42;100945.94;5095610;28;20071;-81
2023/10/14 05:10:44;;;;;;;0.20;0.20;;;;;;;13.07;61.82;100952.06;5095455;28;20071;-80
2023/10/14 05:13:10;;;;;;;0.13;0.13;;;;;;;13.00;62.59;100948.72;5092507;28;20071;-80
2023/10/14 05:15:41;;;;;;;0.10;0.10;;;;;;;12.96;59.79;100955.03;5091543;28;20145;-80
2023/10/14 05:18:16;;;;;;;0.30;0.30;;;;;;;13.05;62.14;100964.56;5091915;28;20036;-80
2023/10/14 05:20:56;;;;;;;0.13;0.13;;;;;;;12.99;60.54;100959.41;5092759;28;20028;-80
2023/10/14 05:23:30;;;;;;;0.10;0.10;;;;;;;13.07;60.86;100968.00;5092277;28;20017;-81
2023/10/14 05:25:58;;;;;;;0.20;0.20;;;;;;;13.05;60.45;100976.03;5091765;28;20059;-80
2023/10/14 05:28:36;;;;;;;0.20;0.20;;;;;;;13.06;60.22;100972.47;5095045;28;20024;-81
2023/10/14 05:31:08;;;;;;;3.92;1.98;;;;;;;13.05;60.28;100973.38;5090784;28;20035;-80
2023/10/14 05:33:34;;;;;;;0.20;0.20;;;;;;;13.05;60.12;100975.19;5094912;28;20418;-80
2023/10/14 05:36:01;;;;;;;0.20;0.20;;;;;;;13.00;60.10;100983.28;5092241;28;20071;-80
2023/10/14 05:38:28;;;;;;;0.10;0.10;;;;;;;13.01;60.38;100995.69;5086123;28;20075;-79
2023/10/14 05:40:56;;;;;;;0.10;0.10;;;;;;;13.07;60.96;100992.84;5092601;28;20088;-81
2023/10/14 05:43:23;;;;;;;0.10;0.10;;;;;;;13.06;60.45;100992.88;5091650;28;20501;-82
2023/10/14 05:45:52;;;;;;;0.10;0.10;;;;;;;13.02;59.88;100991.22;5087915;28;20040;-80
2023/10/14 05:48:19;;;;;;;0.10;0.10;;;;;;;13.07;60.52;101000.81;5088558;28;20028;-81
2023/10/14 05:50:45;;;;;;;0.10;0.10;;;;;;;13.11;60.76;101006.94;5082099;28;20033;-81
2023/10/14 05:53:13;;;;;;;0.10;0.10;;;;;;;13.04;59.88;101005.34;5081795;28;20043;-81
2023/10/14 05:55:39;;;;;;;0.10;0.10;;;;;;;13.03;59.64;101009.78;5074362;28;20043;-81
2023/10/14 05:58:07;;;;;;;0.85;0.85;;;;;;;13.02;59.72;101017.81;5077696;28;20458;-81
2023/10/14 06:00:38;;;;;;;0.10;0.10;;;;;;;13.05;59.93;101023.06;5074318;28;20028;-82
2023/10/14 06:03:11;;;;;;;0.10;0.10;;;;;;;12.93;59.60;101025.16;5070857;28;20025;-82
2023/10/14 06:05:37;;;;;;;0.10;0.10;;;;;;;12.98;59.79;101034.78;5070123;28;20119;-81
2023/10/14 06:08:06;;;;;;;0.10;0.10;;;;;;;12.98;59.94;101042.75;5056707;28;20045;-80
2023/10/14 06:10:36;;;;;;;0.10;0.10;;;;;;;13.07;60.03;101047.81;5063123;28;20107;-81
2023/10/14 06:13:05;;;;;;;0.30;0.30;;;;;;;13.07;60.63;101053.13;5076443;28;20025;-82
2023/10/14 06:15:39;;;;;;;0.10;0.10;;;;;;;12.99;60.96;101056.00;5078003;28;20493;-83
2023/10/14 06:18:08;;;;;;;0.57;0.57;;;;;;;13.05;60.73;101068.28;5071479;28;20032;-82
2023/10/14 06:20:35;;;;;;;1.20;1.20;;;;;;;13.03;60.94;101064.78;5066639;28;20047;-82
2023/10/14 06:23:01;;;;;;;0.10;0.10;;;;;;;13.23;61.27;101070.44;5076355;28;20025;-81
2023/10/14 06:25:31;;;;;;;0.10;0.10;;;;;;;13.29;61.39;101069.41;5070128;28;20152;-81
2023/10/14 06:27:58;;;;;;;0.32;0.32;;;;;;;13.34;61.30;101074.59;5069524;28;20402;-79
2023/10/14 06:30:24;;;;;;;0.20;0.20;;;;;;;13.29;61.41;101080.03;5068780;28;20044;-81
2023/10/14 06:32:58;;;;;;;0.10;0.10;;;;;;;13.34;61.21;101085.25;5076794;28;20107;-80
2023/10/14 06:35:26;;;;;;;0.10;0.10;;;;;;;13.32;61.36;101089.72;5067950;28;20078;-80
2023/10/14 06:37:54;;;;;;;0.10;0.10;;;;;;;13.32;62.08;101095.03;5057712;28;20103;-81
2023/10/14 06:40:20;;;;;;;0.10;0.10;;;;;;;13.26;61.93;101099.63;5058998;28;20044;-80
2023/10/14 06:42:49;;;;;;;0.90;0.90;;;;;;;13.26;62.50;101107.59;5062282;28;20036;-80
2023/10/14 06:45:18;;;;;;;0.10;0.10;;;;;;;13.24;62.79;101114.75;5064216;28;20029;-80
2023/10/14 06:47:49;;;;;;;0.10;0.10;;;;;;;13.21;63.10;101113.97;5074675;28;20028;-81
2023/10/14 06:50:23;;;;;;;0.20;0.20;;;;;;;13.22;63.21;101121.91;5076626;28;20029;-82
2023/10/14 06:52:58;;;;;;;0.10;0.10;;;;;;;13.21;63.49;101122.81;5068735;28;20035;-81
2023/10/14 06:55:26;;;;;;;0.10;0.10;;;;;;;13.19;63.80;101134.41;5069356;28;20051;-82
2023/10/14 06:57:54;;;;;;;0.10;0.10;;;;;;;13.21;63.75;101130.81;5055930;28;20063;-81
2023/10/14 07:00:25;;;;;;;0.10;0.10;;;;;;;13.18;64.40;101135.34;5068950;28;20051;-82
2023/10/14 07:02:53;;;;;;;0.20;0.20;;;;;;;13.23;64.35;101155.59;5070281;28;20096;-80
2023/10/14 07:05:21;;;;;;;0.10;0.10;;;;;;;13.18;64.65;101162.78;5080786;28;20037;-82
2023/10/14 07:07:47;;;;;;;0.10;0.10;;;;;;;13.26;64.62;101168.81;5075306;28;20037;-82
2023/10/14 07:10:14;;;;;;;0.50;0.50;;;;;;;13.22;64.59;101175.13;5076048;28;20127;-81
2023/10/14 07:12:40;;;;;;;5.18;2.58;;;;;;;13.27;64.69;101170.56;5080553;28;20031;-82
2023/10/14 07:15:12;;;;;;;0.10;0.10;;;;;;;13.27;64.51;101170.56;5080338;28;20104;-81
2023/10/14 07:17:40;;;;;;;0.20;0.20;;;;;;;13.36;64.38;101181.88;5067980;28;20021;-82
2023/10/14 07:20:10;;;;;;;0.15;0.15;;;;;;;13.35;64.48;101182.81;5068826;28;20029;-81
2023/10/14 07:22:37;;;;;;;0.10;0.10;;;;;;;13.36;63.26;101182.75;5071284;28;20582;-85
2023/10/14 07:25:05;;;;;;;0.30;0.30;;;;;;;13.51;63.67;101183.31;5079567;28;20421;-82
2023/10/14 07:27:35;;;;;;;0.20;0.20;;;;;;;13.65;63.73;101193.56;5065498;28;20032;-82
2023/10/14 07:30:13;;;;;;;0.10;0.10;;;;;;;13.74;64.03;101191.53;5069815;28;20044;-83
2023/10/14 07:32:43;;;;;;;0.32;0.32;;;;;;;13.84;63.86;101196.59;5069499;28;20029;-82
2023/10/14 07:35:11;;;;;;;0.10;0.10;;;;;;;13.93;62.91;101203.44;5082744;28;20031;-81
2023/10/14 07:37:42;;;;;;;0.68;0.68;;;;;;;14.05;62.86;101213.75;5082086;28;20028;-83
2023/10/14 07:40:11;;;;;;;0.10;0.10;;;;;;;14.05;63.22;101208.44;5083000;28;20475;-83
2023/10/14 07:42:38;;;;;;;0.57;0.57;;;;;;;14.13;63.44;101206.44;5078255;28;20032;-80
2023/10/14 07:45:10;;;;;;;0.52;0.43;;;;;;;14.11;63.59;101218.91;5065066;28;20097;-83
2023/10/14 07:47:37;;;;;;;0.65;0.65;;;;;;;14.10;63.25;101225.16;5064433;28;20565;-82
2023/10/14 07:50:09;;;;;;;0.30;0.30;;;;;;;14.14;62.89;101233.94;5078373;28;20028;-82
2023/10/14 07:52:36;;;;;;;0.20;0.20;;;;;;;14.23;63.29;101231.88;5059343;28;20084;-81
2023/10/14 07:55:04;;;;;;;0.10;0.10;;;;;;;14.22;63.26;101238.13;5058644;28;20071;-83
2023/10/14 07:57:31;;;;;;;0.77;0.77;;;;;;;14.23;63.24;101246.97;5058272;28;20478;-86
2023/10/14 08:00:09;;;;;;;0.10;0.10;;;;;;;14.15;62.91;101246.34;5075907;28;20093;-83
2023/10/14 08:02:35;;;;;;;0.10;0.10;;;;;;;14.03;61.89;101255.53;5078131;28;20103;-81
2023/10/14 08:05:05;;;;;;;0.10;0.10;;;;;;;13.99;62.63;101245.91;5077718;28;20044;-82
2023/10/14 08:07:34;;;;;;;0.10;0.10;;;;;;;14.06;62.14;101258.16;5063233;28;20431;-82
2023/10/14 08:10:16;;;;;;;0.10;0.10;;;;;;;14.08;61.41;101257.19;5062512;28;20032;-82
2023/10/14 08:12:43;;;;;;;0.10;0.10;;;;;;;14.13;61.00;101266.81;5076177;28;20048;-82
2023/10/14 08:15:09;;;;;;;0.10;0.10;;;;;;;14.06;59.31;101268.81;5060179;28;20032;-81
2023/10/14 08:17:35;;;;;;;0.20;0.20;;;;;;;14.13;59.01;101266.81;5075612;28;20155;-81
2023/10/14 08:20:01;;;;;;;0.10;0.10;;;;;;;14.29;59.72;101267.28;5063384;28;20024;-81
2023/10/14 08:22:28;;;;;;;0.10;0.10;;;;;;;14.38;59.56;101267.00;5063628;28;20521;-82
2023/10/14 08:24:54;;;;;;;0.10;0.10;;;;;;;14.49;59.89;101274.69;5058338;28;20100;-80
2023/10/14 08:27:22;;;;;;;0.93;0.93;;;;;;;14.51;58.39;101270.19;5076804;28;20028;-82
2023/10/14 08:29:48;;;;;;;0.10;0.10;;;;;;;14.55;57.65;101283.41;5078077;28;20036;-80
2023/10/14 08:32:14;;;;;;;0.10;0.10;;;;;;;14.62;57.43;101278.75;5064466;28;20448;-81
2023/10/14 08:34:40;;;;;;;0.10;0.10;;;;;;;14.69;57.27;101282.13;5063751;28;20047;-81
2023/10/14 08:37:07;;;;;;;0.10;0.10;;;;;;;14.78;57.30;101296.97;5063842;28;20090;-81
2023/10/14 08:39:33;;;;;;;0.10;0.10;;;;;;;14.82;56.59;101286.16;5066399;28;20051;-81
2023/10/14 08:42:04;;;;;;;0.10;0.10;;;;;;;14.80;55.36;101298.66;5074673;28;20649;-81
2023/10/14 08:44:32;;;;;;;4.07;2.13;;;;;;;14.80;54.76;101304.00;5078466;28;20161;-81
2023/10/14 08:46:59;;;;;;;0.10;0.10;;;;;;;14.94;55.12;101305.38;5060515;28;20029;-82
2023/10/14 08:49:28;;;;;;;0.13;0.13;;;;;;;14.98;54.35;101302.56;5063944;28;20087;-81
2023/10/14 08:51:56;;;;;;;0.10;0.10;;;;;;;15.07;54.20;101309.41;5062837;28;20032;-80
2023/10/14 08:54:24;;;;;;;0.13;0.13;;;;;;;15.05;52.86;101308.59;5077416;28;20040;-81
2023/10/14 08:56:51;;;;;;;0.47;0.47;;;;;;;15.16;53.85;101309.13;5072403;28;20048;-81
2023/10/14 08:59:17;;;;;;;0.25;0.25;;;;;;;15.14;53.66;101324.31;5078004;28;20024;-80
2023/10/14 09:01:44;;;;;;;0.10;0.10;;;;;;;15.06;52.11;101322.81;5075046;28;20041;-80
2023/10/14 09:04:11;;;;;;;0.10;0.10;;;;;;;15.16;52.19;101322.47;5070345;28;20025;-82
2023/10/14 09:06:38;;;;;;;0.10;0.10;;;;;;;15.30;52.32;101334.50;5058488;28;20037;-84
2023/10/14 09:09:17;;;;;;;0.10;0.10;;;;;;;15.56;51.33;101324.78;5067952;28;20028;-85
2023/10/14 09:11:43;;;;;;;0.10;0.10;;;;;;;15.66;52.00;101337.78;5072136;28;20033;-83
2023/10/14 09:14:14;;;;;;;0.10;0.10;;;;;;;15.72;51.57;101351.84;5063992;28;20084;-83
2023/10/14 09:16:42;;;;;;;0.10;0.10;;;;;;;15.67;52.51;101344.00;5074281;28;20770;-82
2023/10/14 09:19:08;;;;;;;0.10;0.10;;;;;;;15.77;52.07;101350.75;5081571;28;20021;-82
2023/10/14 09:21:43;;;;;;;0.22;0.22;;;;;;;15.67;49.99;101349.34;5078109;28;20519;-82
2023/10/14 09:24:09;;;;;;;0.10;0.10;;;;;;;15.76;50.37;101354.34;5073766;28;20060;-83
2023/10/14 09:26:39;;;;;;;0.10;0.10;;;;;;;15.72;50.38;101350.06;5082620;28;20039;-82
2023/10/14 09:29:09;;;;;;;0.50;0.50;;;;;;;15.63;50.22;101361.91;5081039;28;20024;-80
2023/10/14 09:31:38;;;;;;;0.10;0.10;;;;;;;15.41;49.43;101361.72;5086678;28;20051;-82
2023/10/14 09:34:04;;;;;;;0.10;0.10;;;;;;;15.53;51.85;101364.00;5086683;28;20021;-81
2023/10/14 09:36:35;;;;;;;0.10;0.10;;;;;;;15.45;50.74;101360.72;5089922;28;20492;-80
2023/10/14 09:39:11;;;;;;;0.17;0.17;;;;;;;15.43;51.33;101365.25;5096319;28;20038;-79
2023/10/14 09:41:38;;;;;;;0.10;0.10;;;;;;;15.39;51.11;101370.72;5087553;28;20044;-80
2023/10/14 09:44:06;;;;;;;0.10;0.10;;;;;;;15.42;51.26;101374.16;5081171;28;20028;-80
2023/10/14 09:46:33;;;;;;;0.10;0.10;;;;;;;15.48;49.72;101373.97;5072598;28;20033;-80
2023/10/14 09:49:00;;;;;;;0.20;0.20;;;;;;;15.62;48.97;101372.66;5072307;28;20035;-79
2023/10/14 09:51:27;;;;;;;0.10;0.10;;;;;;;15.73;48.48;101381.19;5076486;28;20039;-80
2023/10/14 09:53:54;;;;;;;2.40;2.20;;;;;;;15.86;48.66;101381.66;5082403;28;20096;-80
2023/10/14 09:56:21;;;;;;;0.20;0.20;;;;;;;15.87;49.29;101377.22;5082814;28;20021;-80
2023/10/14 09:58:48;;;;;;;0.20;0.20;;;;;;;15.75;48.14;101387.38;5080596;28;20056;-78
2023/10/14 10:01:16;;;;;;;0.10;0.10;;;;;;;15.90;48.58;101383.34;5074802;28;20401;-80
2023/10/14 10:04:03;;;;;;;11.07;1.05;;;;;;;16.02;48.55;101387.38;5072037;28;20036;-80
2023/10/14 10:09:57;;;;;;;0.10;0.10;;;;;;;16.31;48.70;101398.84;5052627;28;20418;-81
2023/10/14 10:12:25;;;;;;;0.00;0.00;;;;;;;16.36;48.50;101401.38;5040883;28;20539;-80
2023/10/14 10:15:01;;;;;;;0.30;0.30;;;;;;;16.48;48.50;101417.00;5060357;28;20037;-80
2023/10/14 10:17:28;;;;;;;0.20;0.20;;;;;;;16.66;48.63;101415.47;5056927;28;20070;-80
2023/10/14 10:20:25;;;;;;;3.50;0.77;;;;;;;16.61;46.46;101412.94;5058831;28;20033;-81
2023/10/14 10:22:52;;;;;;;0.10;0.10;;;;;;;16.63;45.30;101429.81;5046564;28;20062;-81
2023/10/14 10:33:54;;;;;;;0.10;0.10;;;;;;;16.79;46.44;101415.88;5102980;27;20134;-81
2023/10/14 10:36:22;;;;;;;3.95;1.65;;;;;;;16.91;47.46;101415.47;5095842;28;20028;-81
2023/10/14 10:38:53;;;;;;;0.10;0.10;;;;;;;16.92;45.36;101416.31;5095692;28;20074;-82
2023/10/14 10:41:25;;;;;;;0.17;0.17;;;;;;;17.10;46.77;101426.34;5097203;28;20501;-82
2023/10/14 10:44:11;;;;;;;0.10;0.10;;;;;;;17.21;45.34;101439.31;5093587;28;20039;-82
2023/10/14 10:46:47;;;;;;;1.92;1.65;;;;;;;17.03;42.39;101430.16;5086652;28;20104;-82
2023/10/14 10:49:16;;;;;;;0.22;0.22;;;;;;;16.96;43.33;101429.53;5089327;28;20066;-83
2023/10/14 10:52:08;;;;;;;0.10;0.10;;;;;;;17.11;43.84;101430.78;5098725;28;20020;-82
2023/10/14 10:54:35;;;;;;;1.65;1.55;;;;;;;16.98;43.28;101432.16;5086500;28;20048;-83
2023/10/14 10:57:02;;;;;;;0.10;0.10;;;;;;;17.14;44.45;101433.31;5083291;28;20098;-82
2023/10/14 10:59:28;;;;;;;0.10;0.10;;;;;;;17.03;44.34;101432.84;5076491;28;20037;-83
2023/10/14 11:01:56;;;;;;;0.10;0.10;;;;;;;17.18;44.21;101444.78;5075208;28;20024;-81
2023/10/14 11:04:23;;;;;;;0.10;0.10;;;;;;;17.18;44.01;101443.94;5093757;28;20105;-81
2023/10/14 11:06:51;;;;;;;0.10;0.10;;;;;;;17.26;44.65;101439.16;5097884;28;20077;-81
2023/10/14 11:09:17;;;;;;;0.03;0.03;;;;;;;17.28;42.76;101440.84;5094639;28;20035;-82
2023/10/14 11:11:44;;;;;;;0.10;0.10;;;;;;;17.33;42.54;101447.81;5096267;28;20025;-82
2023/10/14 11:14:18;;;;;;;0.08;0.08;;;;;;;17.18;41.59;101447.47;5093056;28;20033;-82
2023/10/14 11:16:44;;;;;;;0.10;0.10;;;;;;;17.10;42.18;101455.78;5098439;28;20030;-81
2023/10/14 11:19:10;;;;;;;0.10;0.10;;;;;;;17.36;44.35;101469.09;5090088;28;20398;-82
2023/10/14 11:21:39;;;;;;;0.10;0.10;;;;;;;17.18;43.57;101462.66;5085747;28;20111;-80
2023/10/14 11:24:09;;;;;;;0.10;0.10;;;;;;;17.13;43.23;101463.72;5087391;28;20039;-80
2023/10/14 11:26:37;;;;;;;0.40;0.40;;;;;;;17.14;41.94;101473.47;5086504;28;20038;-80
2023/10/14 11:29:04;;;;;;;0.20;0.20;;;;;;;17.02;42.03;101487.31;5078246;28;20397;-82
2023/10/14 11:31:31;;;;;;;0.05;0.05;;;;;;;16.96;42.49;101463.47;5074477;28;20016;-80
2023/10/14 11:34:04;;;;;;;0.85;0.85;;;;;;;17.17;43.14;101471.63;5089000;28;20047;-80
2023/10/14 11:36:30;;;;;;;0.10;0.10;;;;;;;16.93;42.37;101477.81;5085856;28;20033;-80
2023/10/14 11:38:58;;;;;;;0.13;0.13;;;;;;;16.87;42.59;101471.78;5070438;28;20032;-81
2023/10/14 11:41:26;;;;;;;0.10;0.10;;;;;;;17.02;44.39;101476.59;5074710;28;20031;-81
2023/10/14 11:43:53;;;;;;;0.10;0.10;;;;;;;17.16;43.96;101468.09;5064470;28;20688;-82
2023/10/14 11:46:19;;;;;;;0.15;0.15;;;;;;;17.18;43.14;101462.66;5057446;28;20688;-82
2023/10/14 11:48:48;;;;;;;0.10;0.10;;;;;;;17.33;44.03;101472.78;5066047;28;20056;-83
2023/10/14 11:51:20;;;;;;;0.10;0.10;;;;;;;17.25;43.94;101473.09;5071130;28;20021;-83
2023/10/14 11:53:50;;;;;;;0.60;0.60;;;;;;;17.33;44.96;101470.09;5063283;28;20047;-79
2023/10/14 11:56:17;;;;;;;0.10;0.10;;;;;;;17.28;43.60;101474.75;5072862;28;20627;-79
2023/10/14 11:58:44;;;;;;;0.20;0.20;;;;;;;17.35;42.01;101481.66;5070758;28;20033;-80
2023/10/14 12:01:11;;;;;;;0.10;0.10;;;;;;;17.20;41.64;101479.56;5075829;28;20028;-80
2023/10/14 12:03:38;;;;;;;0.10;0.10;;;;;;;17.28;43.04;101482.81;5068815;28;20055;-80
2023/10/14 12:06:06;;;;;;;1.65;0.90;;;;;;;17.26;43.60;101484.69;5075097;28;20028;-78
2023/10/14 12:08:38;;;;;;;0.22;0.22;;;;;;;17.25;43.09;101480.25;5075661;28;20489;-80
2023/10/14 12:11:05;;;;;;;0.10;0.10;;;;;;;17.07;42.83;101498.75;5077197;28;20024;-80
2023/10/14 12:13:31;;;;;;;0.52;0.52;;;;;;;16.76;42.27;101485.56;5076380;28;20036;-81